Terminal Aerodrome Forecast
Issued by NWS

Home | Current Version | Previous Version | Text Only | Print | Product List | Glossary On
Versions: 1 2 3 4 5 6 7 8 9 10 11 12 13 14 15 16
000
FTUS43 KGRB 231409 AAA
TAFRHI
TAF AMD
KRHI 231409Z 2314/2412 03010G16KT P6SM VCSH OVC013
      TEMPO 2314/2317 OVC007
     FM231700 07007KT P6SM VCSH BKN015 OVC035
     FM232000 10007KT P6SM BKN035
     FM240800 12008KT P6SM SCT040 BKN150=

USA.gov is the U.S. government's official web portal to all federal, state and local government web resources and services.